sensor_id;sensor_type;location;lat;lon;timestamp;P1;durP1;ratioP1;P2;durP2;ratioP2
49392;SDS011;35268;42.642;23.308;2024-02-28T00:01:38;23.05;;;12.13;;
49392;SDS011;35268;42.642;23.308;2024-02-28T00:04:03;24.55;;;10.70;;
49392;SDS011;35268;42.642;23.308;2024-02-28T00:06:28;26.45;;;11.32;;
49392;SDS011;35268;42.642;23.308;2024-02-28T00:08:54;24.90;;;12.05;;
49392;SDS011;35268;42.642;23.308;2024-02-28T00:11:20;24.30;;;11.65;;
49392;SDS011;35268;42.642;23.308;2024-02-28T00:13:45;25.65;;;12.05;;
49392;SDS011;35268;42.642;23.308;2024-02-28T00:16:11;28.08;;;10.63;;
49392;SDS011;35268;42.642;23.308;2024-02-28T00:18:37;25.50;;;11.43;;
49392;SDS011;35268;42.642;23.308;2024-02-28T00:21:02;27.50;;;11.07;;
49392;SDS011;35268;42.642;23.308;2024-02-28T00:23:28;19.00;;;9.73;;
49392;SDS011;35268;42.642;23.308;2024-02-28T00:25:54;25.35;;;9.38;;
49392;SDS011;35268;42.642;23.308;2024-02-28T00:28:20;46.47;;;10.57;;
49392;SDS011;35268;42.642;23.308;2024-02-28T00:30:46;20.75;;;10.82;;
49392;SDS011;35268;42.642;23.308;2024-02-28T00:33:11;21.10;;;9.82;;
49392;SDS011;35268;42.642;23.308;2024-02-28T00:35:36;21.08;;;10.13;;
49392;SDS011;35268;42.642;23.308;2024-02-28T00:38:02;28.67;;;10.20;;
49392;SDS011;35268;42.642;23.308;2024-02-28T00:40:28;24.10;;;10.27;;
49392;SDS011;35268;42.642;23.308;2024-02-28T00:42:56;18.58;;;9.05;;
49392;SDS011;35268;42.642;23.308;2024-02-28T00:45:22;26.02;;;10.52;;
49392;SDS011;35268;42.642;23.308;2024-02-28T00:47:48;24.58;;;10.73;;
49392;SDS011;35268;42.642;23.308;2024-02-28T00:50:14;22.17;;;10.95;;
49392;SDS011;35268;42.642;23.308;2024-02-28T00:52:39;23.20;;;10.55;;
49392;SDS011;35268;42.642;23.308;2024-02-28T00:55:05;17.65;;;9.10;;
49392;SDS011;35268;42.642;23.308;2024-02-28T00:57:31;17.95;;;9.43;;
49392;SDS011;35268;42.642;23.308;2024-02-28T00:59:56;23.35;;;10.23;;
49392;SDS011;35268;42.642;23.308;2024-02-28T01:02:22;18.95;;;8.85;;
49392;SDS011;35268;42.642;23.308;2024-02-28T01:04:48;21.30;;;10.15;;
49392;SDS011;35268;42.642;23.308;2024-02-28T01:07:13;21.05;;;10.15;;
49392;SDS011;35268;42.642;23.308;2024-02-28T01:09:39;25.02;;;11.40;;
49392;SDS011;35268;42.642;23.308;2024-02-28T01:12:04;22.70;;;10.88;;
49392;SDS011;35268;42.642;23.308;2024-02-28T01:14:30;17.60;;;9.80;;
49392;SDS011;35268;42.642;23.308;2024-02-28T01:16:55;23.02;;;10.57;;
49392;SDS011;35268;42.642;23.308;2024-02-28T01:19:20;22.65;;;9.70;;
49392;SDS011;35268;42.642;23.308;2024-02-28T01:21:46;19.10;;;9.35;;
49392;SDS011;35268;42.642;23.308;2024-02-28T01:24:11;20.67;;;9.38;;
49392;SDS011;35268;42.642;23.308;2024-02-28T01:26:37;20.70;;;9.85;;
49392;SDS011;35268;42.642;23.308;2024-02-28T01:29:02;23.02;;;8.45;;
49392;SDS011;35268;42.642;23.308;2024-02-28T01:31:28;19.40;;;8.75;;
49392;SDS011;35268;42.642;23.308;2024-02-28T01:33:53;24.38;;;10.07;;
49392;SDS011;35268;42.642;23.308;2024-02-28T01:36:20;17.90;;;7.90;;
49392;SDS011;35268;42.642;23.308;2024-02-28T01:38:46;22.10;;;8.88;;
49392;SDS011;35268;42.642;23.308;2024-02-28T01:41:11;17.15;;;8.75;;
49392;SDS011;35268;42.642;23.308;2024-02-28T01:43:36;16.83;;;8.13;;
49392;SDS011;35268;42.642;23.308;2024-02-28T01:46:03;20.20;;;8.50;;
49392;SDS011;35268;42.642;23.308;2024-02-28T01:48:45;20.13;;;8.07;;
49392;SDS011;35268;42.642;23.308;2024-02-28T01:51:11;17.33;;;8.60;;
49392;SDS011;35268;42.642;23.308;2024-02-28T01:53:38;16.48;;;8.70;;
49392;SDS011;35268;42.642;23.308;2024-02-28T01:56:03;20.23;;;8.32;;
49392;SDS011;35268;42.642;23.308;2024-02-28T01:58:29;17.83;;;9.10;;
49392;SDS011;35268;42.642;23.308;2024-02-28T02:00:54;16.38;;;8.15;;
49392;SDS011;35268;42.642;23.308;2024-02-28T02:03:21;20.33;;;10.23;;
49392;SDS011;35268;42.642;23.308;2024-02-28T02:05:46;17.13;;;9.98;;
49392;SDS011;35268;42.642;23.308;2024-02-28T02:08:12;23.10;;;10.35;;
49392;SDS011;35268;42.642;23.308;2024-02-28T02:10:38;20.77;;;9.63;;
49392;SDS011;35268;42.642;23.308;2024-02-28T02:13:04;23.30;;;9.98;;
49392;SDS011;35268;42.642;23.308;2024-02-28T02:15:32;20.73;;;10.63;;
49392;SDS011;35268;42.642;23.308;2024-02-28T02:17:58;26.23;;;10.30;;
49392;SDS011;35268;42.642;23.308;2024-02-28T02:20:23;19.88;;;9.52;;
49392;SDS011;35268;42.642;23.308;2024-02-28T02:22:51;23.75;;;9.32;;
49392;SDS011;35268;42.642;23.308;2024-02-28T02:25:18;22.42;;;9.90;;
49392;SDS011;35268;42.642;23.308;2024-02-28T02:27:43;26.38;;;10.60;;
49392;SDS011;35268;42.642;23.308;2024-02-28T02:30:09;20.80;;;11.13;;
49392;SDS011;35268;42.642;23.308;2024-02-28T02:32:35;25.63;;;10.50;;
49392;SDS011;35268;42.642;23.308;2024-02-28T02:35:00;22.50;;;11.63;;
49392;SDS011;35268;42.642;23.308;2024-02-28T02:37:25;21.70;;;10.93;;
49392;SDS011;35268;42.642;23.308;2024-02-28T02:39:51;18.42;;;10.13;;
49392;SDS011;35268;42.642;23.308;2024-02-28T02:42:17;16.65;;;9.18;;
49392;SDS011;35268;42.642;23.308;2024-02-28T02:44:42;18.80;;;9.60;;
49392;SDS011;35268;42.642;23.308;2024-02-28T02:47:08;21.05;;;9.23;;
49392;SDS011;35268;42.642;23.308;2024-02-28T02:49:33;18.88;;;9.07;;
49392;SDS011;35268;42.642;23.308;2024-02-28T02:51:58;18.60;;;9.63;;
49392;SDS011;35268;42.642;23.308;2024-02-28T02:54:24;25.58;;;10.02;;
49392;SDS011;35268;42.642;23.308;2024-02-28T02:56:49;23.15;;;10.05;;
49392;SDS011;35268;42.642;23.308;2024-02-28T02:59:15;17.73;;;9.68;;
49392;SDS011;35268;42.642;23.308;2024-02-28T03:01:40;21.25;;;9.60;;
49392;SDS011;35268;42.642;23.308;2024-02-28T03:04:05;17.05;;;9.35;;
49392;SDS011;35268;42.642;23.308;2024-02-28T03:06:31;19.27;;;8.15;;
49392;SDS011;35268;42.642;23.308;2024-02-28T03:08:57;20.65;;;8.95;;
49392;SDS011;35268;42.642;23.308;2024-02-28T03:11:23;23.08;;;8.55;;
49392;SDS011;35268;42.642;23.308;2024-02-28T03:13:48;23.52;;;9.63;;
49392;SDS011;35268;42.642;23.308;2024-02-28T03:16:13;16.58;;;8.30;;
49392;SDS011;35268;42.642;23.308;2024-02-28T03:18:39;17.42;;;8.10;;
49392;SDS011;35268;42.642;23.308;2024-02-28T03:21:04;16.92;;;9.98;;
49392;SDS011;35268;42.642;23.308;2024-02-28T03:23:30;25.42;;;10.05;;
49392;SDS011;35268;42.642;23.308;2024-02-28T03:25:55;22.17;;;10.27;;
49392;SDS011;35268;42.642;23.308;2024-02-28T03:28:20;16.38;;;8.65;;
49392;SDS011;35268;42.642;23.308;2024-02-28T03:30:46;17.02;;;9.35;;
49392;SDS011;35268;42.642;23.308;2024-02-28T03:33:11;20.48;;;9.40;;
49392;SDS011;35268;42.642;23.308;2024-02-28T03:35:37;22.52;;;10.13;;
49392;SDS011;35268;42.642;23.308;2024-02-28T03:38:02;20.00;;;9.57;;
49392;SDS011;35268;42.642;23.308;2024-02-28T03:40:28;22.58;;;10.02;;
49392;SDS011;35268;42.642;23.308;2024-02-28T03:42:53;14.85;;;8.38;;
49392;SDS011;35268;42.642;23.308;2024-02-28T03:45:19;22.35;;;10.07;;
49392;SDS011;35268;42.642;23.308;2024-02-28T03:47:44;18.15;;;9.23;;
49392;SDS011;35268;42.642;23.308;2024-02-28T03:50:10;25.98;;;10.20;;
49392;SDS011;35268;42.642;23.308;2024-02-28T03:52:36;26.15;;;11.48;;
49392;SDS011;35268;42.642;23.308;2024-02-28T03:55:01;23.30;;;10.32;;
49392;SDS011;35268;42.642;23.308;2024-02-28T03:57:29;19.92;;;9.98;;
49392;SDS011;35268;42.642;23.308;2024-02-28T03:59:55;21.52;;;9.60;;
49392;SDS011;35268;42.642;23.308;2024-02-28T04:02:20;19.83;;;9.38;;
49392;SDS011;35268;42.642;23.308;2024-02-28T04:04:45;20.13;;;10.02;;
49392;SDS011;35268;42.642;23.308;2024-02-28T04:07:11;24.30;;;10.00;;
49392;SDS011;35268;42.642;23.308;2024-02-28T04:09:36;23.08;;;10.98;;
49392;SDS011;35268;42.642;23.308;2024-02-28T04:12:05;23.65;;;12.18;;
49392;SDS011;35268;42.642;23.308;2024-02-28T04:14:31;23.90;;;12.65;;
49392;SDS011;35268;42.642;23.308;2024-02-28T04:16:59;30.33;;;12.50;;
49392;SDS011;35268;42.642;23.308;2024-02-28T04:19:25;22.60;;;11.55;;
49392;SDS011;35268;42.642;23.308;2024-02-28T04:21:51;29.63;;;11.75;;
49392;SDS011;35268;42.642;23.308;2024-02-28T04:24:16;24.45;;;11.90;;
49392;SDS011;35268;42.642;23.308;2024-02-28T04:26:42;24.38;;;10.85;;
49392;SDS011;35268;42.642;23.308;2024-02-28T04:29:07;19.08;;;8.50;;
49392;SDS011;35268;42.642;23.308;2024-02-28T04:31:38;21.92;;;10.15;;
49392;SDS011;35268;42.642;23.308;2024-02-28T04:34:04;17.48;;;9.43;;
49392;SDS011;35268;42.642;23.308;2024-02-28T04:36:29;25.35;;;9.77;;
49392;SDS011;35268;42.642;23.308;2024-02-28T04:38:54;22.83;;;10.80;;
49392;SDS011;35268;42.642;23.308;2024-02-28T04:41:20;19.92;;;10.10;;
49392;SDS011;35268;42.642;23.308;2024-02-28T04:43:45;22.85;;;9.77;;
49392;SDS011;35268;42.642;23.308;2024-02-28T04:46:11;24.58;;;10.38;;
49392;SDS011;35268;42.642;23.308;2024-02-28T04:48:36;20.80;;;10.00;;
49392;SDS011;35268;42.642;23.308;2024-02-28T04:51:02;23.08;;;10.23;;
49392;SDS011;35268;42.642;23.308;2024-02-28T04:53:27;19.50;;;10.02;;
49392;SDS011;35268;42.642;23.308;2024-02-28T04:55:53;24.33;;;11.90;;
49392;SDS011;35268;42.642;23.308;2024-02-28T04:58:18;21.52;;;10.43;;
49392;SDS011;35268;42.642;23.308;2024-02-28T05:00:44;22.15;;;11.77;;
49392;SDS011;35268;42.642;23.308;2024-02-28T05:03:09;21.10;;;10.50;;
49392;SDS011;35268;42.642;23.308;2024-02-28T05:05:35;22.60;;;10.60;;
49392;SDS011;35268;42.642;23.308;2024-02-28T05:08:00;24.10;;;10.07;;
49392;SDS011;35268;42.642;23.308;2024-02-28T05:10:26;20.13;;;11.05;;
49392;SDS011;35268;42.642;23.308;2024-02-28T05:12:51;19.00;;;9.80;;
49392;SDS011;35268;42.642;23.308;2024-02-28T05:15:17;24.42;;;11.40;;
49392;SDS011;35268;42.642;23.308;2024-02-28T05:17:42;22.55;;;12.40;;
49392;SDS011;35268;42.642;23.308;2024-02-28T05:20:08;21.48;;;11.25;;
49392;SDS011;35268;42.642;23.308;2024-02-28T05:22:34;27.58;;;12.50;;
49392;SDS011;35268;42.642;23.308;2024-02-28T05:24:59;21.95;;;11.20;;
49392;SDS011;35268;42.642;23.308;2024-02-28T05:27:24;29.13;;;12.27;;
49392;SDS011;35268;42.642;23.308;2024-02-28T05:29:50;24.65;;;12.35;;
49392;SDS011;35268;42.642;23.308;2024-02-28T05:32:15;29.95;;;14.43;;
49392;SDS011;35268;42.642;23.308;2024-02-28T05:34:42;31.88;;;13.25;;
49392;SDS011;35268;42.642;23.308;2024-02-28T05:37:07;30.70;;;14.55;;
49392;SDS011;35268;42.642;23.308;2024-02-28T05:39:33;34.08;;;14.38;;
49392;SDS011;35268;42.642;23.308;2024-02-28T05:41:58;29.92;;;14.10;;
49392;SDS011;35268;42.642;23.308;2024-02-28T05:44:23;24.90;;;12.15;;
49392;SDS011;35268;42.642;23.308;2024-02-28T05:46:52;32.28;;;13.75;;
49392;SDS011;35268;42.642;23.308;2024-02-28T05:49:17;33.75;;;13.25;;
49392;SDS011;35268;42.642;23.308;2024-02-28T05:51:43;31.42;;;14.20;;
49392;SDS011;35268;42.642;23.308;2024-02-28T05:54:09;32.55;;;14.48;;
49392;SDS011;35268;42.642;23.308;2024-02-28T05:56:35;28.85;;;13.63;;
49392;SDS011;35268;42.642;23.308;2024-02-28T05:59:00;31.73;;;14.13;;
49392;SDS011;35268;42.642;23.308;2024-02-28T06:01:25;30.45;;;13.65;;
49392;SDS011;35268;42.642;23.308;2024-02-28T06:03:51;29.83;;;13.80;;
49392;SDS011;35268;42.642;23.308;2024-02-28T06:06:17;28.85;;;13.75;;
49392;SDS011;35268;42.642;23.308;2024-02-28T06:08:43;33.08;;;15.73;;
49392;SDS011;35268;42.642;23.308;2024-02-28T06:11:09;41.05;;;16.10;;
49392;SDS011;35268;42.642;23.308;2024-02-28T06:13:35;40.22;;;16.48;;
49392;SDS011;35268;42.642;23.308;2024-02-28T06:16:00;33.85;;;17.65;;
49392;SDS011;35268;42.642;23.308;2024-02-28T06:18:29;35.67;;;17.75;;
49392;SDS011;35268;42.642;23.308;2024-02-28T06:20:58;39.33;;;17.83;;
49392;SDS011;35268;42.642;23.308;2024-02-28T06:23:24;38.58;;;17.77;;
49392;SDS011;35268;42.642;23.308;2024-02-28T06:25:50;37.40;;;19.42;;
49392;SDS011;35268;42.642;23.308;2024-02-28T06:28:15;36.55;;;18.60;;
49392;SDS011;35268;42.642;23.308;2024-02-28T06:30:42;39.90;;;18.42;;
49392;SDS011;35268;42.642;23.308;2024-02-28T06:33:08;42.17;;;19.73;;
49392;SDS011;35268;42.642;23.308;2024-02-28T06:35:34;44.10;;;19.40;;
49392;SDS011;35268;42.642;23.308;2024-02-28T06:37:59;43.05;;;19.88;;
49392;SDS011;35268;42.642;23.308;2024-02-28T06:40:24;41.08;;;19.20;;
49392;SDS011;35268;42.642;23.308;2024-02-28T06:42:50;36.75;;;18.85;;
49392;SDS011;35268;42.642;23.308;2024-02-28T06:45:15;41.58;;;18.90;;
49392;SDS011;35268;42.642;23.308;2024-02-28T06:47:41;41.38;;;20.10;;
49392;SDS011;35268;42.642;23.308;2024-02-28T06:50:06;50.92;;;20.58;;
49392;SDS011;35268;42.642;23.308;2024-02-28T06:52:32;51.97;;;19.58;;
49392;SDS011;35268;42.642;23.308;2024-02-28T06:54:59;44.60;;;19.75;;
49392;SDS011;35268;42.642;23.308;2024-02-28T06:57:28;41.47;;;19.75;;
49392;SDS011;35268;42.642;23.308;2024-02-28T06:59:53;39.85;;;19.98;;
49392;SDS011;35268;42.642;23.308;2024-02-28T07:02:19;43.33;;;20.23;;
49392;SDS011;35268;42.642;23.308;2024-02-28T07:04:44;45.72;;;19.95;;
49392;SDS011;35268;42.642;23.308;2024-02-28T07:07:10;57.75;;;20.60;;
49392;SDS011;35268;42.642;23.308;2024-02-28T07:09:37;49.60;;;18.95;;
49392;SDS011;35268;42.642;23.308;2024-02-28T07:12:03;43.63;;;19.35;;
49392;SDS011;35268;42.642;23.308;2024-02-28T07:14:28;49.35;;;20.42;;
49392;SDS011;35268;42.642;23.308;2024-02-28T07:16:54;47.45;;;21.13;;
49392;SDS011;35268;42.642;23.308;2024-02-28T07:19:19;38.83;;;17.88;;
49392;SDS011;35268;42.642;23.308;2024-02-28T07:21:45;39.85;;;19.30;;
49392;SDS011;35268;42.642;23.308;2024-02-28T07:24:10;39.67;;;18.02;;
49392;SDS011;35268;42.642;23.308;2024-02-28T07:26:36;43.70;;;17.95;;
49392;SDS011;35268;42.642;23.308;2024-02-28T07:29:01;44.08;;;17.90;;
49392;SDS011;35268;42.642;23.308;2024-02-28T07:31:27;38.70;;;18.50;;
49392;SDS011;35268;42.642;23.308;2024-02-28T07:33:52;35.78;;;17.48;;
49392;SDS011;35268;42.642;23.308;2024-02-28T07:36:19;36.47;;;16.17;;
49392;SDS011;35268;42.642;23.308;2024-02-28T07:38:44;43.42;;;17.77;;
49392;SDS011;35268;42.642;23.308;2024-02-28T07:41:10;39.00;;;16.63;;
49392;SDS011;35268;42.642;23.308;2024-02-28T07:43:35;32.03;;;17.40;;
49392;SDS011;35268;42.642;23.308;2024-02-28T07:46:07;29.13;;;16.48;;
49392;SDS011;35268;42.642;23.308;2024-02-28T07:48:33;34.35;;;17.45;;
49392;SDS011;35268;42.642;23.308;2024-02-28T07:50:59;36.88;;;16.83;;
49392;SDS011;35268;42.642;23.308;2024-02-28T07:53:24;37.03;;;17.70;;
49392;SDS011;35268;42.642;23.308;2024-02-28T07:55:49;40.20;;;17.75;;
49392;SDS011;35268;42.642;23.308;2024-02-28T07:58:15;35.33;;;17.13;;
49392;SDS011;35268;42.642;23.308;2024-02-28T08:00:41;40.17;;;16.02;;
49392;SDS011;35268;42.642;23.308;2024-02-28T08:03:08;44.60;;;15.13;;
49392;SDS011;35268;42.642;23.308;2024-02-28T08:05:34;42.50;;;16.17;;
49392;SDS011;35268;42.642;23.308;2024-02-28T08:08:04;31.83;;;15.73;;
49392;SDS011;35268;42.642;23.308;2024-02-28T08:10:30;40.90;;;15.68;;
49392;SDS011;35268;42.642;23.308;2024-02-28T08:12:56;36.50;;;14.63;;
49392;SDS011;35268;42.642;23.308;2024-02-28T08:15:21;30.77;;;14.35;;
49392;SDS011;35268;42.642;23.308;2024-02-28T08:17:46;32.20;;;15.65;;
49392;SDS011;35268;42.642;23.308;2024-02-28T08:20:12;37.72;;;16.23;;
49392;SDS011;35268;42.642;23.308;2024-02-28T08:22:38;46.05;;;16.38;;
49392;SDS011;35268;42.642;23.308;2024-02-28T08:25:03;39.50;;;18.17;;
49392;SDS011;35268;42.642;23.308;2024-02-28T08:27:29;32.22;;;14.40;;
49392;SDS011;35268;42.642;23.308;2024-02-28T08:29:54;34.88;;;14.93;;
49392;SDS011;35268;42.642;23.308;2024-02-28T08:32:20;35.15;;;16.40;;
49392;SDS011;35268;42.642;23.308;2024-02-28T08:34:45;33.33;;;15.15;;
49392;SDS011;35268;42.642;23.308;2024-02-28T08:37:11;29.90;;;15.52;;
49392;SDS011;35268;42.642;23.308;2024-02-28T08:39:37;34.17;;;14.60;;
49392;SDS011;35268;42.642;23.308;2024-02-28T08:42:03;29.45;;;14.93;;
49392;SDS011;35268;42.642;23.308;2024-02-28T08:44:31;33.35;;;14.45;;
49392;SDS011;35268;42.642;23.308;2024-02-28T08:46:56;31.00;;;14.70;;
49392;SDS011;35268;42.642;23.308;2024-02-28T08:49:22;33.15;;;13.98;;
49392;SDS011;35268;42.642;23.308;2024-02-28T08:51:47;23.73;;;13.77;;
49392;SDS011;35268;42.642;23.308;2024-02-28T08:54:13;32.63;;;13.93;;
49392;SDS011;35268;42.642;23.308;2024-02-28T08:56:38;31.13;;;14.73;;
49392;SDS011;35268;42.642;23.308;2024-02-28T08:59:04;27.30;;;14.38;;
49392;SDS011;35268;42.642;23.308;2024-02-28T09:01:29;31.70;;;14.55;;
49392;SDS011;35268;42.642;23.308;2024-02-28T09:03:54;37.65;;;16.35;;
49392;SDS011;35268;42.642;23.308;2024-02-28T09:06:20;27.60;;;13.82;;
49392;SDS011;35268;42.642;23.308;2024-02-28T09:08:45;46.55;;;16.75;;
49392;SDS011;35268;42.642;23.308;2024-02-28T09:11:11;27.35;;;13.90;;
49392;SDS011;35268;42.642;23.308;2024-02-28T09:13:36;27.67;;;14.48;;
49392;SDS011;35268;42.642;23.308;2024-02-28T09:16:02;35.42;;;16.35;;
49392;SDS011;35268;42.642;23.308;2024-02-28T09:18:27;33.17;;;14.82;;
49392;SDS011;35268;42.642;23.308;2024-02-28T09:20:53;40.60;;;16.08;;
49392;SDS011;35268;42.642;23.308;2024-02-28T09:23:18;30.48;;;14.40;;
49392;SDS011;35268;42.642;23.308;2024-02-28T09:25:44;32.92;;;13.65;;
49392;SDS011;35268;42.642;23.308;2024-02-28T09:28:09;28.80;;;14.30;;
49392;SDS011;35268;42.642;23.308;2024-02-28T09:30:38;34.90;;;15.45;;
49392;SDS011;35268;42.642;23.308;2024-02-28T09:33:03;38.83;;;17.30;;
49392;SDS011;35268;42.642;23.308;2024-02-28T09:35:29;35.15;;;15.20;;
49392;SDS011;35268;42.642;23.308;2024-02-28T09:37:54;40.08;;;16.33;;
49392;SDS011;35268;42.642;23.308;2024-02-28T09:40:19;30.35;;;15.23;;
49392;SDS011;35268;42.642;23.308;2024-02-28T09:42:52;32.72;;;16.05;;
49392;SDS011;35268;42.642;23.308;2024-02-28T09:45:21;31.40;;;14.50;;
49392;SDS011;35268;42.642;23.308;2024-02-28T09:47:48;37.70;;;14.10;;
49392;SDS011;35268;42.642;23.308;2024-02-28T09:50:14;32.78;;;15.52;;
49392;SDS011;35268;42.642;23.308;2024-02-28T09:52:39;28.45;;;13.48;;
49392;SDS011;35268;42.642;23.308;2024-02-28T09:55:05;37.50;;;14.27;;
49392;SDS011;35268;42.642;23.308;2024-02-28T09:57:31;28.85;;;15.15;;
49392;SDS011;35268;42.642;23.308;2024-02-28T09:59:59;42.92;;;15.73;;
49392;SDS011;35268;42.642;23.308;2024-02-28T10:02:26;27.85;;;13.02;;
49392;SDS011;35268;42.642;23.308;2024-02-28T10:04:53;35.40;;;15.40;;
49392;SDS011;35268;42.642;23.308;2024-02-28T10:07:20;43.95;;;15.80;;
49392;SDS011;35268;42.642;23.308;2024-02-28T10:09:46;26.10;;;14.38;;
49392;SDS011;35268;42.642;23.308;2024-02-28T10:12:12;33.80;;;13.63;;
49392;SDS011;35268;42.642;23.308;2024-02-28T10:14:37;48.92;;;16.38;;
49392;SDS011;35268;42.642;23.308;2024-02-28T10:17:04;28.48;;;13.55;;
49392;SDS011;35268;42.642;23.308;2024-02-28T10:19:30;32.00;;;14.63;;
49392;SDS011;35268;42.642;23.308;2024-02-28T10:21:55;32.17;;;14.18;;
49392;SDS011;35268;42.642;23.308;2024-02-28T10:24:23;28.50;;;15.02;;
49392;SDS011;35268;42.642;23.308;2024-02-28T10:26:49;36.80;;;14.98;;
49392;SDS011;35268;42.642;23.308;2024-02-28T10:29:23;32.03;;;14.55;;
49392;SDS011;35268;42.642;23.308;2024-02-28T10:31:50;26.80;;;13.70;;
49392;SDS011;35268;42.642;23.308;2024-02-28T10:34:18;30.40;;;13.32;;
49392;SDS011;35268;42.642;23.308;2024-02-28T10:36:44;28.05;;;12.18;;
49392;SDS011;35268;42.642;23.308;2024-02-28T10:39:11;25.48;;;12.45;;
49392;SDS011;35268;42.642;23.308;2024-02-28T10:41:40;31.48;;;12.73;;
49392;SDS011;35268;42.642;23.308;2024-02-28T10:44:06;32.35;;;11.60;;
49392;SDS011;35268;42.642;23.308;2024-02-28T10:46:33;26.45;;;10.52;;
49392;SDS011;35268;42.642;23.308;2024-02-28T10:49:00;24.30;;;11.40;;
49392;SDS011;35268;42.642;23.308;2024-02-28T10:51:26;22.27;;;9.63;;
49392;SDS011;35268;42.642;23.308;2024-02-28T10:53:59;22.35;;;10.57;;
49392;SDS011;35268;42.642;23.308;2024-02-28T10:56:34;22.63;;;9.98;;
49392;SDS011;35268;42.642;23.308;2024-02-28T10:59:00;18.95;;;9.10;;
49392;SDS011;35268;42.642;23.308;2024-02-28T11:01:27;17.80;;;9.35;;
49392;SDS011;35268;42.642;23.308;2024-02-28T11:03:53;16.48;;;7.18;;
49392;SDS011;35268;42.642;23.308;2024-02-28T11:06:19;16.80;;;7.15;;
49392;SDS011;35268;42.642;23.308;2024-02-28T11:08:49;17.38;;;7.50;;
49392;SDS011;35268;42.642;23.308;2024-02-28T11:11:21;17.73;;;7.25;;
49392;SDS011;35268;42.642;23.308;2024-02-28T11:13:53;18.92;;;7.03;;
49392;SDS011;35268;42.642;23.308;2024-02-28T11:16:29;15.00;;;8.00;;
49392;SDS011;35268;42.642;23.308;2024-02-28T11:18:56;23.15;;;7.68;;
49392;SDS011;35268;42.642;23.308;2024-02-28T11:21:23;16.75;;;8.10;;
49392;SDS011;35268;42.642;23.308;2024-02-28T11:24:01;19.92;;;7.95;;
49392;SDS011;35268;42.642;23.308;2024-02-28T11:26:27;14.98;;;6.80;;
49392;SDS011;35268;42.642;23.308;2024-02-28T11:28:55;19.45;;;6.30;;
49392;SDS011;35268;42.642;23.308;2024-02-28T11:31:21;14.52;;;5.38;;
49392;SDS011;35268;42.642;23.308;2024-02-28T11:33:47;15.93;;;5.25;;
49392;SDS011;35268;42.642;23.308;2024-02-28T11:36:12;12.88;;;6.38;;
49392;SDS011;35268;42.642;23.308;2024-02-28T11:38:38;16.63;;;6.28;;
49392;SDS011;35268;42.642;23.308;2024-02-28T11:41:04;23.67;;;8.18;;
49392;SDS011;35268;42.642;23.308;2024-02-28T11:43:33;17.98;;;5.38;;
49392;SDS011;35268;42.642;23.308;2024-02-28T11:46:07;14.07;;;5.63;;
49392;SDS011;35268;42.642;23.308;2024-02-28T11:48:35;16.25;;;7.25;;
49392;SDS011;35268;42.642;23.308;2024-02-28T11:51:00;11.32;;;6.47;;
49392;SDS011;35268;42.642;23.308;2024-02-28T11:53:26;13.50;;;6.43;;
49392;SDS011;35268;42.642;23.308;2024-02-28T11:55:52;13.90;;;6.65;;
49392;SDS011;35268;42.642;23.308;2024-02-28T11:58:18;10.00;;;5.20;;
49392;SDS011;35268;42.642;23.308;2024-02-28T12:00:47;11.98;;;3.97;;
49392;SDS011;35268;42.642;23.308;2024-02-28T12:03:14;10.60;;;3.60;;
49392;SDS011;35268;42.642;23.308;2024-02-28T12:05:44;15.75;;;3.72;;
49392;SDS011;35268;42.642;23.308;2024-02-28T12:08:10;9.70;;;3.10;;
49392;SDS011;35268;42.642;23.308;2024-02-28T12:10:36;19.50;;;4.72;;
49392;SDS011;35268;42.642;23.308;2024-02-28T12:13:02;16.25;;;5.10;;
49392;SDS011;35268;42.642;23.308;2024-02-28T12:15:30;19.48;;;4.82;;
49392;SDS011;35268;42.642;23.308;2024-02-28T12:17:57;17.17;;;4.78;;
49392;SDS011;35268;42.642;23.308;2024-02-28T12:20:25;17.70;;;5.15;;
49392;SDS011;35268;42.642;23.308;2024-02-28T12:22:50;12.23;;;4.57;;
49392;SDS011;35268;42.642;23.308;2024-02-28T12:25:16;18.05;;;4.78;;
49392;SDS011;35268;42.642;23.308;2024-02-28T12:27:41;21.27;;;5.40;;
49392;SDS011;35268;42.642;23.308;2024-02-28T12:30:07;13.25;;;5.75;;
49392;SDS011;35268;42.642;23.308;2024-02-28T12:32:33;13.88;;;6.15;;
49392;SDS011;35268;42.642;23.308;2024-02-28T12:34:58;13.98;;;5.63;;
49392;SDS011;35268;42.642;23.308;2024-02-28T12:37:23;13.73;;;7.10;;
49392;SDS011;35268;42.642;23.308;2024-02-28T12:39:49;13.05;;;6.40;;
49392;SDS011;35268;42.642;23.308;2024-02-28T12:42:16;13.60;;;6.18;;
49392;SDS011;35268;42.642;23.308;2024-02-28T12:44:42;21.95;;;7.40;;
49392;SDS011;35268;42.642;23.308;2024-02-28T12:47:11;26.20;;;8.02;;
49392;SDS011;35268;42.642;23.308;2024-02-28T12:49:37;22.15;;;7.55;;
49392;SDS011;35268;42.642;23.308;2024-02-28T12:52:03;10.77;;;5.85;;
49392;SDS011;35268;42.642;23.308;2024-02-28T12:54:28;19.00;;;7.07;;
49392;SDS011;35268;42.642;23.308;2024-02-28T12:56:54;13.90;;;6.85;;
49392;SDS011;35268;42.642;23.308;2024-02-28T12:59:19;17.30;;;7.55;;
49392;SDS011;35268;42.642;23.308;2024-02-28T13:01:45;20.02;;;7.07;;
49392;SDS011;35268;42.642;23.308;2024-02-28T13:04:12;12.52;;;7.72;;
49392;SDS011;35268;42.642;23.308;2024-02-28T13:06:38;16.10;;;7.38;;
49392;SDS011;35268;42.642;23.308;2024-02-28T13:09:04;15.82;;;7.75;;
49392;SDS011;35268;42.642;23.308;2024-02-28T13:11:31;18.25;;;7.95;;
49392;SDS011;35268;42.642;23.308;2024-02-28T13:13:57;17.27;;;7.05;;
49392;SDS011;35268;42.642;23.308;2024-02-28T13:16:23;12.23;;;7.93;;
49392;SDS011;35268;42.642;23.308;2024-02-28T13:18:50;17.60;;;7.65;;
49392;SDS011;35268;42.642;23.308;2024-02-28T13:21:16;20.85;;;7.28;;
49392;SDS011;35268;42.642;23.308;2024-02-28T13:23:41;16.05;;;7.75;;
49392;SDS011;35268;42.642;23.308;2024-02-28T13:26:07;16.05;;;7.75;;
49392;SDS011;35268;42.642;23.308;2024-02-28T13:28:33;20.60;;;7.47;;
49392;SDS011;35268;42.642;23.308;2024-02-28T13:31:02;17.42;;;7.78;;
49392;SDS011;35268;42.642;23.308;2024-02-28T13:33:31;16.35;;;7.78;;
49392;SDS011;35268;42.642;23.308;2024-02-28T13:35:57;17.80;;;7.50;;
49392;SDS011;35268;42.642;23.308;2024-02-28T13:38:22;23.52;;;8.02;;
49392;SDS011;35268;42.642;23.308;2024-02-28T13:40:48;15.00;;;7.35;;
49392;SDS011;35268;42.642;23.308;2024-02-28T13:43:14;26.92;;;7.40;;
49392;SDS011;35268;42.642;23.308;2024-02-28T13:45:41;14.02;;;7.60;;
49392;SDS011;35268;42.642;23.308;2024-02-28T13:48:15;22.05;;;7.85;;
49392;SDS011;35268;42.642;23.308;2024-02-28T13:50:46;14.40;;;7.15;;
49392;SDS011;35268;42.642;23.308;2024-02-28T13:53:12;19.63;;;7.95;;
49392;SDS011;35268;42.642;23.308;2024-02-28T13:55:39;17.88;;;7.68;;
49392;SDS011;35268;42.642;23.308;2024-02-28T13:58:05;18.77;;;7.57;;
49392;SDS011;35268;42.642;23.308;2024-02-28T14:00:31;17.92;;;8.07;;
49392;SDS011;35268;42.642;23.308;2024-02-28T14:02:57;14.10;;;6.60;;
49392;SDS011;35268;42.642;23.308;2024-02-28T14:05:22;17.45;;;7.40;;
49392;SDS011;35268;42.642;23.308;2024-02-28T14:07:48;14.70;;;6.90;;